createdAt,value
2022-07-31T00:00:35.509Z,7.80
2022-07-31T00:03:03.249Z,4.00
2022-07-31T00:05:31.275Z,7.00
2022-07-31T00:07:59.401Z,6.60
2022-07-31T00:10:27.113Z,7.00
2022-07-31T00:12:54.781Z,7.40
2022-07-31T00:15:22.505Z,4.00
2022-07-31T00:17:50.678Z,7.20
2022-07-31T00:20:18.557Z,5.80
2022-07-31T00:22:46.258Z,7.60
2022-07-31T00:25:14.094Z,7.20
2022-07-31T00:27:42.142Z,7.60
2022-07-31T00:30:10.084Z,4.40
2022-07-31T00:32:37.772Z,8.80
2022-07-31T00:35:06.055Z,8.60
2022-07-31T00:37:33.960Z,10.80
2022-07-31T00:40:01.739Z,7.00
2022-07-31T00:42:29.363Z,7.80
2022-07-31T00:44:57.446Z,8.00
2022-07-31T00:47:27.483Z,7.00
2022-07-31T00:49:57.472Z,7.80
2022-07-31T00:52:25.406Z,7.60
2022-07-31T00:54:53.653Z,7.40
2022-07-31T00:57:21.420Z,6.60
2022-07-31T00:59:49.182Z,8.40
2022-07-31T01:02:17.019Z,8.60
2022-07-31T01:04:45.906Z,7.60
2022-07-31T01:07:14.490Z,8.00
2022-07-31T01:09:42.766Z,7.00
2022-07-31T01:12:10.437Z,5.80
2022-07-31T01:14:38.210Z,7.80
2022-07-31T01:17:07.376Z,7.00
2022-07-31T01:19:37.961Z,7.00
2022-07-31T01:22:33.338Z,7.00
2022-07-31T01:24:58.393Z,5.60
2022-07-31T01:27:26.069Z,8.20
2022-07-31T01:29:54.955Z,4.80
2022-07-31T01:32:27.467Z,1.00
2022-07-31T01:34:55.597Z,5.20
2022-07-31T01:37:23.809Z,7.00
2022-07-31T01:39:51.625Z,7.00
2022-07-31T01:42:19.262Z,3.20
2022-07-31T01:44:46.939Z,7.80
2022-07-31T01:47:15.043Z,7.40
2022-07-31T01:49:42.741Z,5.80
2022-07-31T01:52:10.427Z,8.20
2022-07-31T01:54:38.308Z,7.80
2022-07-31T01:57:06.487Z,4.40
2022-07-31T01:59:34.187Z,7.00
2022-07-31T02:02:03.597Z,9.20
2022-07-31T02:04:33.368Z,5.80
2022-07-31T02:07:01.393Z,6.00
2022-07-31T02:09:29.021Z,8.00
2022-07-31T02:11:56.780Z,6.40
2022-07-31T02:14:24.509Z,6.40
2022-07-31T02:16:52.720Z,9.00
2022-07-31T02:19:20.372Z,9.20
2022-07-31T02:21:51.109Z,7.80
2022-07-31T02:24:18.846Z,6.80
2022-07-31T02:26:46.578Z,7.80
2022-07-31T02:29:19.352Z,6.00
2022-07-31T02:31:48.536Z,8.20
2022-07-31T02:34:30.509Z,9.00
2022-07-31T02:36:58.603Z,10.40
2022-07-31T02:39:30.311Z,10.00
2022-07-31T02:42:01.677Z,9.80
2022-07-31T02:44:29.816Z,6.00
2022-07-31T02:46:58.272Z,6.80
2022-07-31T02:49:25.990Z,10.00
2022-07-31T02:51:53.669Z,9.75
2022-07-31T02:54:21.349Z,8.20
2022-07-31T02:56:48.973Z,4.00
2022-07-31T02:59:16.716Z,9.00
2022-07-31T03:01:44.441Z,7.40
2022-07-31T03:04:12.499Z,9.40
2022-07-31T03:06:40.839Z,6.80
2022-07-31T03:09:08.471Z,7.00
2022-07-31T03:11:36.255Z,5.60
2022-07-31T03:14:03.928Z,8.00
2022-07-31T03:16:31.989Z,6.00
2022-07-31T03:18:59.904Z,6.00
2022-07-31T03:21:27.633Z,6.20
2022-07-31T03:23:55.567Z,7.00
2022-07-31T03:26:24.680Z,6.40
2022-07-31T03:28:52.432Z,6.00
2022-07-31T03:31:20.159Z,6.60
2022-07-31T03:33:47.803Z,6.00
2022-07-31T03:36:15.524Z,6.75
2022-07-31T03:38:47.573Z,6.50
2022-07-31T03:41:18.366Z,6.50
2022-07-31T03:43:47.912Z,6.00
2022-07-31T03:46:15.852Z,8.00
2022-07-31T03:48:43.553Z,9.00
2022-07-31T03:51:11.229Z,12.00
2022-07-31T03:53:39.811Z,9.00
2022-07-31T03:56:07.522Z,10.00
2022-07-31T03:58:36.738Z,7.00
2022-07-31T04:01:10.328Z,9.40
2022-07-31T04:03:39.901Z,6.60
2022-07-31T04:06:07.827Z,7.00
2022-07-31T04:08:35.777Z,9.75
2022-07-31T04:11:03.469Z,6.00
2022-07-31T04:13:31.190Z,7.00
2022-07-31T04:15:58.795Z,5.60
2022-07-31T04:18:26.949Z,6.60
2022-07-31T04:20:54.616Z,6.40
2022-07-31T04:23:22.335Z,6.00
2022-07-31T04:26:00.199Z,3.60
2022-07-31T04:28:30.179Z,4.40
2022-07-31T04:30:57.791Z,6.00
2022-07-31T04:33:25.466Z,3.80
2022-07-31T04:35:53.091Z,6.40
2022-07-31T04:38:22.119Z,7.00
2022-07-31T04:40:49.807Z,6.80
2022-07-31T04:43:18.186Z,9.20
2022-07-31T04:45:45.979Z,7.20
2022-07-31T04:48:14.201Z,6.80
2022-07-31T04:50:41.895Z,7.00
2022-07-31T04:53:09.567Z,6.20
2022-07-31T04:55:37.175Z,4.80
2022-07-31T04:58:05.196Z,6.40
2022-07-31T05:00:32.951Z,7.00
2022-07-31T05:03:00.636Z,5.40
2022-07-31T05:05:28.296Z,5.20
2022-07-31T05:07:56.951Z,4.80
2022-07-31T05:10:42.218Z,4.00
2022-07-31T05:13:09.882Z,5.20
2022-07-31T05:15:38.220Z,5.80
2022-07-31T05:18:07.825Z,6.60
2022-07-31T05:20:35.471Z,4.60
2022-07-31T05:23:03.210Z,5.60
2022-07-31T05:25:34.868Z,6.20
2022-07-31T05:28:02.481Z,5.20
2022-07-31T05:30:30.874Z,7.80
2022-07-31T05:32:58.710Z,7.00
2022-07-31T05:35:26.434Z,7.00
2022-07-31T05:37:54.482Z,5.00
2022-07-31T05:40:22.120Z,7.00
2022-07-31T05:42:49.841Z,6.20
2022-07-31T05:45:17.815Z,5.80
2022-07-31T05:47:45.971Z,4.60
2022-07-31T05:50:14.587Z,7.00
2022-07-31T05:52:42.872Z,4.60
2022-07-31T05:55:10.502Z,6.60
2022-07-31T05:57:38.658Z,7.60
2022-07-31T06:00:06.404Z,6.60
2022-07-31T06:02:34.083Z,5.40
2022-07-31T06:05:01.849Z,3.20
2022-07-31T06:07:30.551Z,4.40
2022-07-31T06:09:58.215Z,5.00
2022-07-31T06:12:25.894Z,7.00
2022-07-31T06:14:53.563Z,7.80
2022-07-31T06:17:21.507Z,9.20
2022-07-31T06:19:50.185Z,7.80
2022-07-31T06:22:17.967Z,7.20
2022-07-31T06:24:45.695Z,6.60
2022-07-31T06:27:33.484Z,3.20
2022-07-31T06:30:01.824Z,7.00
2022-07-31T06:32:29.452Z,7.00
2022-07-31T06:34:57.207Z,5.00
2022-07-31T06:37:26.636Z,8.20
2022-07-31T06:39:55.636Z,5.20
2022-07-31T06:42:24.226Z,6.20
2022-07-31T06:44:51.966Z,6.20
2022-07-31T06:47:20.067Z,6.00
2022-07-31T06:49:47.773Z,6.20
2022-07-31T06:52:16.175Z,7.80
2022-07-31T06:54:44.325Z,5.20
2022-07-31T06:57:12.695Z,8.00
2022-07-31T06:59:40.898Z,5.80
2022-07-31T07:02:08.769Z,5.40
2022-07-31T07:04:56.471Z,5.00
2022-07-31T07:07:24.334Z,4.40
2022-07-31T07:09:59.292Z,4.80
2022-07-31T07:12:27.031Z,4.40
2022-07-31T07:14:56.125Z,6.00
2022-07-31T07:17:27.238Z,3.40
2022-07-31T07:19:58.990Z,5.00
2022-07-31T07:22:31.111Z,5.20
2022-07-31T07:24:59.696Z,3.20
2022-07-31T07:27:27.723Z,3.80
2022-07-31T07:29:55.471Z,3.20
2022-07-31T07:32:23.137Z,2.80
2022-07-31T07:34:59.640Z,2.80
2022-07-31T07:37:28.584Z,4.00
2022-07-31T07:39:56.274Z,3.40
2022-07-31T07:42:24.016Z,3.40
2022-07-31T07:44:51.993Z,2.40
2022-07-31T07:47:19.600Z,3.40
2022-07-31T07:49:47.294Z,4.80
2022-07-31T07:52:15.300Z,5.60
2022-07-31T07:54:44.182Z,6.20
2022-07-31T07:57:11.805Z,3.80
2022-07-31T07:59:39.638Z,4.60
2022-07-31T08:02:07.467Z,5.80
2022-07-31T08:04:35.336Z,2.80
2022-07-31T08:07:05.123Z,6.00
2022-07-31T08:09:32.817Z,5.20
2022-07-31T08:12:00.553Z,2.00
2022-07-31T08:14:28.376Z,5.00
2022-07-31T08:16:56.349Z,2.40
2022-07-31T08:19:25.143Z,4.20
2022-07-31T08:21:52.932Z,5.00
2022-07-31T08:24:20.665Z,5.00
2022-07-31T08:27:09.894Z,2.20
2022-07-31T08:29:38.891Z,6.00
2022-07-31T08:32:10.540Z,3.00
2022-07-31T08:34:41.989Z,4.20
2022-07-31T08:37:52.338Z,5.00
2022-07-31T08:39:58.326Z,2.80
2022-07-31T08:42:25.973Z,5.00
2022-07-31T08:44:54.115Z,2.40
2022-07-31T08:47:21.845Z,3.80
2022-07-31T08:49:49.619Z,0.80
2022-07-31T08:52:17.355Z,2.20
2022-07-31T08:54:46.255Z,4.20
2022-07-31T08:57:14.002Z,6.00
2022-07-31T08:59:42.361Z,3.00
2022-07-31T09:02:10.134Z,4.20
2022-07-31T09:04:37.857Z,5.40
2022-07-31T09:07:06.208Z,2.80
2022-07-31T09:09:45.232Z,2.60
2022-07-31T09:12:20.626Z,5.60
2022-07-31T09:15:01.529Z,3.00
2022-07-31T09:17:29.828Z,5.00
2022-07-31T09:19:57.852Z,3.00
2022-07-31T09:22:25.570Z,3.00
2022-07-31T09:24:53.423Z,3.00
2022-07-31T09:27:21.156Z,3.00
2022-07-31T09:29:49.693Z,3.00
2022-07-31T09:32:17.433Z,5.20
2022-07-31T09:34:45.145Z,3.00
2022-07-31T09:37:13.398Z,5.00
2022-07-31T09:39:51.844Z,5.80
2022-07-31T09:42:20.346Z,3.00
2022-07-31T09:44:49.182Z,5.00
2022-07-31T09:47:16.920Z,4.20
2022-07-31T09:49:44.568Z,5.00
2022-07-31T09:52:12.336Z,3.00
2022-07-31T09:54:40.518Z,1.00
2022-07-31T09:57:08.255Z,1.00
2022-07-31T09:59:35.923Z,2.40
2022-07-31T10:02:03.553Z,1.00
2022-07-31T10:04:31.370Z,4.60
2022-07-31T10:06:59.399Z,2.20
2022-07-31T10:09:27.126Z,3.80
2022-07-31T10:11:54.885Z,3.80
2022-07-31T10:14:22.757Z,5.60
2022-07-31T10:16:51.815Z,2.00
2022-07-31T10:19:19.496Z,3.80
2022-07-31T10:21:47.237Z,1.40
2022-07-31T10:24:14.876Z,4.60
2022-07-31T10:27:00.273Z,3.00
2022-07-31T10:29:32.178Z,2.00
2022-07-31T10:32:00.731Z,4.60
2022-07-31T10:34:28.457Z,3.00
2022-07-31T10:36:56.588Z,2.40
2022-07-31T10:39:25.003Z,3.00
2022-07-31T10:41:52.744Z,5.00
2022-07-31T10:44:22.398Z,4.20
2022-07-31T10:46:50.457Z,3.80
2022-07-31T10:49:18.337Z,4.20
2022-07-31T10:51:46.144Z,1.20
2022-07-31T10:54:14.484Z,3.80
2022-07-31T10:56:42.637Z,2.00
2022-07-31T10:59:10.526Z,2.20
2022-07-31T11:01:39.845Z,3.00
2022-07-31T11:04:21.318Z,3.80
2022-07-31T11:06:51.770Z,3.00
2022-07-31T11:09:19.476Z,3.00
2022-07-31T11:11:47.138Z,2.80
2022-07-31T11:14:14.877Z,3.00
2022-07-31T11:16:42.920Z,2.20
2022-07-31T11:19:10.903Z,3.00
2022-07-31T11:21:39.744Z,3.40
2022-07-31T11:24:11.430Z,2.60
2022-07-31T11:26:41.331Z,1.40
2022-07-31T11:30:01.279Z,2.80
2022-07-31T11:31:57.669Z,3.80
2022-07-31T11:34:26.229Z,4.20
2022-07-31T11:36:54.412Z,3.00
2022-07-31T11:39:26.621Z,5.60
2022-07-31T11:42:04.326Z,4.20
2022-07-31T11:44:32.859Z,3.40
2022-07-31T11:47:00.608Z,5.00
2022-07-31T11:49:48.252Z,4.80
2022-07-31T11:52:31.052Z,4.80
2022-07-31T11:55:08.789Z,4.40
2022-07-31T11:57:52.521Z,4.00
2022-07-31T12:00:24.733Z,3.80
2022-07-31T12:02:57.836Z,3.40
2022-07-31T12:05:38.871Z,5.20
2022-07-31T12:08:07.544Z,7.00
2022-07-31T12:10:35.237Z,3.40
2022-07-31T12:13:02.972Z,6.00
2022-07-31T12:15:31.043Z,4.80
2022-07-31T12:17:58.805Z,5.40
2022-07-31T12:20:35.318Z,4.20
2022-07-31T12:23:03.917Z,5.00
2022-07-31T12:25:32.090Z,5.60
2022-07-31T12:27:59.775Z,7.40
2022-07-31T12:30:30.096Z,4.80
2022-07-31T12:32:57.929Z,8.00
2022-07-31T12:35:25.878Z,4.80
2022-07-31T12:38:30.194Z,6.20
2022-07-31T12:41:01.504Z,2.80
2022-07-31T12:43:29.323Z,8.40
2022-07-31T12:46:00.416Z,7.20
2022-07-31T12:48:28.278Z,4.00
2022-07-31T12:50:56.207Z,5.20
2022-07-31T12:53:23.919Z,6.80
2022-07-31T12:55:51.662Z,4.40
2022-07-31T12:58:19.290Z,6.00
2022-07-31T13:00:46.938Z,7.00
2022-07-31T13:03:14.743Z,7.00
2022-07-31T13:05:42.413Z,7.40
2022-07-31T13:08:10.487Z,6.00
2022-07-31T13:10:38.183Z,6.00
2022-07-31T13:13:06.217Z,5.60
2022-07-31T13:15:34.009Z,6.80
2022-07-31T13:18:03.453Z,5.80
2022-07-31T13:20:31.478Z,5.20
2022-07-31T13:22:59.813Z,6.80
2022-07-31T13:25:27.835Z,7.80
2022-07-31T13:27:56.150Z,5.60
2022-07-31T13:30:23.823Z,7.40
2022-07-31T13:32:51.616Z,7.00
2022-07-31T13:35:28.403Z,5.20
2022-07-31T13:37:57.256Z,8.00
2022-07-31T13:40:45.160Z,7.00
2022-07-31T13:43:14.202Z,7.00
2022-07-31T13:45:41.955Z,7.00
2022-07-31T13:48:10.385Z,7.00
2022-07-31T13:50:39.921Z,6.20
2022-07-31T13:53:08.403Z,5.20
2022-07-31T13:55:36.158Z,5.20
2022-07-31T13:58:03.945Z,8.40
2022-07-31T14:00:31.785Z,6.80
2022-07-31T14:02:59.408Z,7.40
2022-07-31T14:05:27.512Z,8.00
2022-07-31T14:07:55.864Z,7.00
2022-07-31T14:10:23.652Z,7.00
2022-07-31T14:12:51.330Z,7.20
2022-07-31T14:15:19.081Z,6.60
2022-07-31T14:17:47.230Z,8.20
2022-07-31T14:20:14.940Z,8.00
2022-07-31T14:22:42.662Z,7.00
2022-07-31T14:25:10.323Z,7.00
2022-07-31T14:27:39.565Z,4.40
2022-07-31T14:30:07.290Z,7.40
2022-07-31T14:32:35.037Z,7.00
2022-07-31T14:35:07.821Z,4.00
2022-07-31T14:37:36.613Z,7.00
2022-07-31T14:40:04.368Z,7.60
2022-07-31T14:42:32.097Z,5.60
2022-07-31T14:45:00.324Z,8.00
2022-07-31T14:47:27.973Z,7.40
2022-07-31T14:50:10.673Z,7.20
2022-07-31T14:52:39.778Z,6.00
2022-07-31T14:55:07.515Z,5.60
2022-07-31T14:57:36.614Z,7.00
2022-07-31T15:00:09.831Z,4.00
2022-07-31T15:02:39.548Z,6.00
2022-07-31T15:06:37.702Z,6.00
2022-07-31T15:07:55.147Z,7.00
2022-07-31T15:10:22.924Z,4.00
2022-07-31T15:12:51.950Z,6.20
2022-07-31T15:15:20.193Z,7.40
2022-07-31T15:17:47.866Z,7.00
2022-07-31T15:20:16.331Z,7.00
2022-07-31T15:22:44.041Z,6.40
2022-07-31T15:25:11.805Z,4.80
2022-07-31T15:27:39.582Z,7.00
2022-07-31T15:30:08.007Z,4.80
2022-07-31T15:32:35.903Z,6.00
2022-07-31T15:35:03.595Z,7.60
2022-07-31T15:37:31.756Z,4.00
2022-07-31T15:40:02.792Z,5.80
2022-07-31T15:42:31.252Z,6.00
2022-07-31T15:44:59.102Z,4.80
2022-07-31T15:47:27.153Z,7.20
2022-07-31T15:49:54.870Z,7.20
2022-07-31T15:52:22.571Z,6.40
2022-07-31T15:54:51.832Z,5.80
2022-07-31T15:57:20.219Z,5.00
2022-07-31T15:59:48.100Z,5.40
2022-07-31T16:02:15.873Z,6.00
2022-07-31T16:04:51.534Z,7.00
2022-07-31T16:08:32.918Z,6.60
2022-07-31T16:10:16.182Z,8.80
2022-07-31T16:12:45.055Z,5.00
2022-07-31T16:15:12.915Z,4.00
2022-07-31T16:17:40.853Z,6.40
2022-07-31T16:20:08.963Z,8.00
2022-07-31T16:22:36.805Z,5.20
2022-07-31T16:25:05.892Z,7.20
2022-07-31T16:27:33.651Z,7.00
2022-07-31T16:30:02.854Z,7.20
2022-07-31T16:32:30.942Z,7.40
2022-07-31T16:35:01.349Z,7.80
2022-07-31T16:37:50.069Z,7.80
2022-07-31T16:40:28.404Z,7.80
2022-07-31T16:43:01.046Z,5.00
2022-07-31T16:45:28.908Z,7.20
2022-07-31T16:47:56.827Z,6.40
2022-07-31T16:50:24.575Z,9.20
2022-07-31T16:52:54.787Z,7.20
2022-07-31T16:55:55.713Z,8.40
2022-07-31T16:58:11.838Z,7.00
2022-07-31T17:00:39.839Z,10.00
2022-07-31T17:03:58.748Z,7.00
2022-07-31T17:05:55.885Z,7.80
2022-07-31T17:08:23.640Z,10.00
2022-07-31T17:10:54.589Z,8.60
2022-07-31T17:13:22.549Z,6.60
2022-07-31T17:15:50.737Z,9.20
2022-07-31T17:18:18.589Z,6.80
2022-07-31T17:20:47.271Z,9.20
2022-07-31T17:23:15.801Z,7.20
2022-07-31T17:25:44.016Z,9.60
2022-07-31T17:28:15.332Z,10.40
2022-07-31T17:30:45.098Z,7.80
2022-07-31T17:33:12.878Z,10.00
2022-07-31T17:35:40.607Z,8.40
2022-07-31T17:38:08.641Z,7.20
2022-07-31T17:40:44.334Z,6.80
2022-07-31T17:43:13.200Z,8.60
2022-07-31T17:45:59.551Z,7.40
2022-07-31T17:48:29.243Z,8.60
2022-07-31T17:50:57.051Z,9.00
2022-07-31T17:53:54.765Z,6.80
2022-07-31T17:56:13.217Z,8.00
2022-07-31T17:58:41.060Z,9.40
2022-07-31T18:01:08.998Z,6.20
2022-07-31T18:03:36.749Z,8.40
2022-07-31T18:06:05.283Z,8.40
2022-07-31T18:08:33.521Z,7.40
2022-07-31T18:11:01.307Z,7.40
2022-07-31T18:13:29.258Z,8.00
2022-07-31T18:15:57.034Z,6.00
2022-07-31T18:18:26.087Z,5.00
2022-07-31T18:20:53.844Z,5.80
2022-07-31T18:23:23.171Z,4.80
2022-07-31T18:25:51.683Z,3.60
2022-07-31T18:28:19.771Z,4.00
2022-07-31T18:30:47.565Z,5.00
2022-07-31T18:33:17.484Z,4.40
2022-07-31T18:35:45.189Z,5.00
2022-07-31T18:38:13.464Z,4.20
2022-07-31T18:40:41.479Z,3.20
2022-07-31T18:43:09.333Z,7.00
2022-07-31T18:45:39.519Z,4.80
2022-07-31T18:48:09.539Z,4.00
2022-07-31T18:50:58.462Z,4.20
2022-07-31T18:53:25.131Z,4.20
2022-07-31T18:55:53.069Z,4.40
2022-07-31T18:58:20.894Z,1.40
2022-07-31T19:00:52.914Z,2.00
2022-07-31T19:03:22.367Z,2.80
2022-07-31T19:05:51.023Z,4.20
2022-07-31T19:08:19.924Z,4.00
2022-07-31T19:10:49.800Z,4.00
2022-07-31T19:13:19.401Z,4.00
2022-07-31T19:15:47.454Z,4.00
2022-07-31T19:18:15.660Z,3.20
2022-07-31T19:21:00.283Z,2.00
2022-07-31T19:23:33.021Z,4.20
2022-07-31T19:26:03.593Z,2.40
2022-07-31T19:28:32.412Z,4.20
2022-07-31T19:31:00.064Z,4.20
2022-07-31T19:33:27.816Z,4.00
2022-07-31T19:36:01.510Z,2.00
2022-07-31T19:38:30.612Z,4.00
2022-07-31T19:40:58.320Z,3.20
2022-07-31T19:43:26.046Z,4.60
2022-07-31T19:45:58.834Z,4.00
2022-07-31T19:48:39.809Z,3.80
2022-07-31T19:51:07.656Z,4.60
2022-07-31T19:53:35.788Z,5.00
2022-07-31T19:56:05.912Z,4.20
2022-07-31T19:58:34.501Z,5.40
2022-07-31T20:01:02.468Z,4.00
2022-07-31T20:03:30.420Z,4.00
2022-07-31T20:05:58.401Z,5.00
2022-07-31T20:08:26.459Z,8.00
2022-07-31T20:10:59.568Z,2.00
2022-07-31T20:13:28.174Z,8.00
2022-07-31T20:15:55.867Z,7.00
2022-07-31T20:18:28.595Z,9.60
2022-07-31T20:20:57.275Z,7.80
2022-07-31T20:23:25.116Z,5.00
2022-07-31T20:25:52.854Z,7.20
2022-07-31T20:28:20.760Z,8.60
2022-07-31T20:30:48.583Z,7.80
2022-07-31T20:33:16.265Z,7.60
2022-07-31T20:35:48.753Z,8.20
2022-07-31T20:38:17.295Z,7.60
2022-07-31T20:40:51.159Z,8.60
2022-07-31T20:43:22.624Z,10.00
2022-07-31T20:45:50.644Z,7.80
2022-07-31T20:48:19.078Z,10.80
2022-07-31T20:50:47.781Z,5.00
2022-07-31T20:53:15.758Z,8.60
2022-07-31T20:55:47.124Z,12.20
2022-07-31T20:58:14.908Z,11.80
2022-07-31T21:00:42.584Z,10.80
2022-07-31T21:03:10.425Z,14.00
2022-07-31T21:05:38.572Z,11.00
2022-07-31T21:08:06.549Z,11.20
2022-07-31T21:10:34.461Z,12.80
2022-07-31T21:13:02.123Z,12.80
2022-07-31T21:15:44.235Z,10.60
2022-07-31T21:18:14.242Z,11.00
2022-07-31T21:20:50.837Z,11.60
2022-07-31T21:23:20.923Z,14.20
2022-07-31T21:25:49.127Z,14.00
2022-07-31T21:28:16.887Z,10.20
2022-07-31T21:30:44.594Z,11.00
2022-07-31T21:33:12.306Z,12.60
2022-07-31T21:35:40.821Z,13.60
2022-07-31T21:38:12.222Z,11.80
2022-07-31T21:40:40.345Z,17.00
2022-07-31T21:43:08.197Z,14.20
2022-07-31T21:45:45.703Z,7.20
2022-07-31T21:48:22.746Z,16.20
2022-07-31T21:50:50.452Z,15.40
2022-07-31T21:53:18.576Z,16.80
2022-07-31T21:55:46.366Z,14.80
2022-07-31T21:58:13.996Z,13.60
2022-07-31T22:00:41.760Z,14.60
2022-07-31T22:03:09.619Z,14.00
2022-07-31T22:05:54.631Z,7.60
2022-07-31T22:08:22.888Z,15.00
2022-07-31T22:10:50.582Z,14.60
2022-07-31T22:13:18.269Z,12.60
2022-07-31T22:15:58.905Z,10.80
2022-07-31T22:18:28.998Z,19.00
2022-07-31T22:20:56.825Z,19.00
2022-07-31T22:23:24.445Z,20.00
2022-07-31T22:25:52.504Z,20.00
2022-07-31T22:28:20.227Z,17.00
2022-07-31T22:30:47.879Z,18.00
2022-07-31T22:33:15.611Z,19.20
2022-07-31T22:35:43.333Z,19.80
2022-07-31T22:38:12.520Z,19.80
2022-07-31T22:40:40.285Z,22.40
2022-07-31T22:44:10.588Z,17.00
2022-07-31T22:45:59.589Z,15.80
2022-07-31T22:48:28.012Z,15.00
2022-07-31T22:50:56.178Z,18.40
2022-07-31T22:53:24.157Z,20.40
2022-07-31T22:55:53.177Z,20.00
2022-07-31T22:58:20.902Z,18.40
2022-07-31T23:00:48.641Z,16.00
2022-07-31T23:03:17.376Z,17.00
2022-07-31T23:06:27.985Z,16.40
2022-07-31T23:08:32.809Z,19.40
2022-07-31T23:11:00.487Z,13.40
2022-07-31T23:13:28.340Z,17.40
2022-07-31T23:15:56.261Z,14.80
2022-07-31T23:18:24.040Z,17.00
2022-07-31T23:20:51.845Z,17.40
2022-07-31T23:23:19.918Z,16.00
2022-07-31T23:25:47.749Z,17.00
2022-07-31T23:28:15.426Z,17.80
2022-07-31T23:30:43.117Z,17.00
2022-07-31T23:33:12.490Z,17.00
2022-07-31T23:35:40.282Z,12.80
2022-07-31T23:38:09.311Z,13.00
2022-07-31T23:40:37.044Z,16.80
2022-07-31T23:43:03.727Z,13.40
2022-07-31T23:45:31.398Z,12.40
2022-07-31T23:48:00.013Z,17.40
2022-07-31T23:50:28.346Z,12.40
2022-07-31T23:52:56.057Z,10.00
2022-07-31T23:55:23.697Z,14.20
2022-07-31T23:57:52.287Z,10.00
